Time;durP1;ratioP1;P1;durP2;ratioP2;P2;SDS_P1;SDS_P2;PMS_P1;PMS_P2;Temp;Humidity;BMP_temperature;BMP_pressure;BME280_temperature;BME280_humidity;BME280_pressure;Samples;Min_cycle;Max_cycle;Signal;HPM_P1;HPM_P2
2021/12/17 00:05:08;;;;;;;46.67;24.87;;;;;;;;;;4462282;32;20263;-56
2021/12/17 00:07:36;;;;;;;45.00;24.20;;;;;;;;;;4460605;32;20287;-57
2021/12/17 00:10:07;;;;;;;39.23;22.57;;;;;;;;;;4462208;32;20263;-57
2021/12/17 00:12:33;;;;;;;25.67;15.40;;;;;;;;;;4449581;32;20212;-60
2021/12/17 00:14:59;;;;;;;30.57;16.60;;;;;;;;;;4447709;32;20329;-59
2021/12/17 00:17:31;;;;;;;26.83;15.67;;;;;;;;;;4451620;32;20272;-58
2021/12/17 00:50:18;;;;;;;34.93;19.40;;;;;;;;;;4463025;32;20224;-56
2021/12/17 00:52:43;;;;;;;36.53;20.43;;;;;;;;;;4462220;32;20204;-57
2021/12/17 00:55:10;;;;;;;35.93;21.00;;;;;;;;;;4463149;32;20322;-58
2021/12/17 00:57:40;;;;;;;43.23;23.50;;;;;;;;;;4462688;32;20473;-57
2021/12/17 01:00:11;;;;;;;58.80;27.93;;;;;;;;;;4461847;32;20394;-57
2021/12/17 01:02:38;;;;;;;53.57;30.00;;;;;;;;;;4462695;32;20311;-58
2021/12/17 01:05:09;;;;;;;56.23;29.83;;;;;;;;;;4462930;32;20262;-57
2021/12/17 01:07:38;;;;;;;61.17;32.23;;;;;;;;;;4461351;32;20258;-58
2021/12/17 01:10:07;;;;;;;69.27;31.40;;;;;;;;;;4463113;32;20667;-58
2021/12/17 01:12:32;;;;;;;68.43;33.30;;;;;;;;;;4457746;32;20266;-58
2021/12/17 01:14:58;;;;;;;77.70;37.10;;;;;;;;;;4449813;32;20642;-59
2021/12/17 01:17:26;;;;;;;68.23;36.33;;;;;;;;;;4453494;32;20220;-58
2021/12/17 01:20:20;;;;;;;65.93;33.77;;;;;;;;;;4462835;32;20279;-58
2021/12/17 01:23:05;;;;;;;67.77;33.77;;;;;;;;;;4461185;32;20357;-58
2021/12/17 01:36:18;;;;;;;32.10;18.77;;;;;;;;;;4462433;32;20654;-58
2021/12/17 01:40:06;;;;;;;41.67;20.80;;;;;;;;;;4462529;32;20235;-57
2021/12/17 01:44:28;;;;;;;35.93;20.03;;;;;;;;;;4462243;32;20258;-57
2021/12/17 01:46:54;;;;;;;30.43;18.07;;;;;;;;;;4462010;32;20216;-58
2021/12/17 02:00:33;;;;;;;39.73;20.47;;;;;;;;;;4459694;32;20345;-58
2021/12/17 02:03:01;;;;;;;32.83;16.70;;;;;;;;;;4446883;32;20286;-57
2021/12/17 02:05:26;;;;;;;35.07;18.30;;;;;;;;;;4446647;32;20291;-57
2021/12/17 02:07:55;;;;;;;35.03;17.90;;;;;;;;;;4446270;32;20346;-57
2021/12/17 02:30:04;;;;;;;29.37;16.07;;;;;;;;;;4462210;32;20254;-58
2021/12/17 02:32:24;;;;;;;30.80;17.37;;;;;;;;;;4461994;32;20240;-57
2021/12/17 02:37:25;;;;;;;48.80;23.97;;;;;;;;;;4462047;32;20583;-58
2021/12/17 02:45:31;;;;;;;35.73;19.00;;;;;;;;;;4461658;32;20242;-58
2021/12/17 02:45:33;;;;;;;38.87;18.83;;;;;;;;;;4462217;32;20266;-58
2021/12/17 02:48:00;;;;;;;27.30;15.33;;;;;;;;;;4461749;32;20239;-57
2021/12/17 02:50:27;;;;;;;30.30;16.77;;;;;;;;;;4462033;32;20303;-58
2021/12/17 02:52:55;;;;;;;26.03;13.33;;;;;;;;;;4460596;32;20516;-58
2021/12/17 02:55:21;;;;;;;21.70;13.67;;;;;;;;;;4460534;32;20220;-57
2021/12/17 02:57:47;;;;;;;11.73;7.50;;;;;;;;;;4461846;32;20239;-58
2021/12/17 03:00:13;;;;;;;16.97;10.00;;;;;;;;;;4461825;32;20419;-57
2021/12/17 03:02:40;;;;;;;19.10;9.90;;;;;;;;;;4458403;32;20319;-56
2021/12/17 03:05:08;;;;;;;16.10;10.00;;;;;;;;;;4459222;32;20314;-57
2021/12/17 03:07:39;;;;;;;14.20;9.37;;;;;;;;;;4460993;32;20220;-57
2021/12/17 03:10:09;;;;;;;27.37;15.93;;;;;;;;;;4461872;32;20196;-57
2021/12/17 03:25:41;;;;;;;18.13;10.17;;;;;;;;;;4464213;32;20712;-56
2021/12/17 03:28:06;;;;;;;19.33;11.97;;;;;;;;;;4464246;32;20295;-57
2021/12/17 03:30:31;;;;;;;19.10;9.77;;;;;;;;;;4464645;32;20724;-56
2021/12/17 03:32:57;;;;;;;23.03;10.07;;;;;;;;;;4464208;32;20562;-56
2021/12/17 03:35:23;;;;;;;17.73;9.43;;;;;;;;;;4464164;32;20284;-57
2021/12/17 03:37:48;;;;;;;17.47;9.37;;;;;;;;;;4463582;32;20207;-57
2021/12/17 03:40:16;;;;;;;11.30;8.10;;;;;;;;;;4464230;32;20665;-58
2021/12/17 03:42:47;;;;;;;14.03;8.80;;;;;;;;;;4464150;32;20246;-58
2021/12/17 03:45:14;;;;;;;13.20;8.63;;;;;;;;;;4463042;32;20236;-57
2021/12/17 03:47:39;;;;;;;11.87;7.87;;;;;;;;;;4463849;32;20271;-57
2021/12/17 03:50:05;;;;;;;11.90;8.47;;;;;;;;;;4464136;32;20627;-60
2021/12/17 03:52:31;;;;;;;13.53;9.03;;;;;;;;;;4463838;32;20290;-58
2021/12/17 03:54:56;;;;;;;13.33;8.27;;;;;;;;;;4463182;32;20343;-57
2021/12/17 03:57:22;;;;;;;13.80;7.93;;;;;;;;;;4464015;32;20672;-57
2021/12/17 03:59:48;;;;;;;12.60;9.10;;;;;;;;;;4462836;32;20365;-57
2021/12/17 04:02:14;;;;;;;54.47;25.63;;;;;;;;;;4464295;32;20319;-57
2021/12/17 04:04:39;;;;;;;60.30;28.53;;;;;;;;;;4464216;32;20262;-57
2021/12/17 04:07:05;;;;;;;54.77;26.33;;;;;;;;;;4464050;32;20340;-57
2021/12/17 04:09:31;;;;;;;33.47;19.63;;;;;;;;;;4462659;32;20251;-57
2021/12/17 04:11:58;;;;;;;30.73;15.77;;;;;;;;;;4454769;32;20223;-57
2021/12/17 04:14:33;;;;;;;35.57;16.33;;;;;;;;;;4448369;32;20225;-56
2021/12/17 04:17:05;;;;;;;31.93;15.20;;;;;;;;;;4447403;32;20228;-56
2021/12/17 04:19:30;;;;;;;28.37;16.20;;;;;;;;;;4463571;32;20251;-57
2021/12/17 04:21:56;;;;;;;22.77;14.17;;;;;;;;;;4463783;32;20321;-57
2021/12/17 04:24:22;;;;;;;30.43;15.30;;;;;;;;;;4463223;32;20342;-57
2021/12/17 04:26:47;;;;;;;30.43;15.63;;;;;;;;;;4463278;32;20644;-57
2021/12/17 04:29:14;;;;;;;22.97;13.33;;;;;;;;;;4463708;32;20306;-56
2021/12/17 04:31:39;;;;;;;23.87;13.03;;;;;;;;;;4462353;32;20266;-57
2021/12/17 04:34:04;;;;;;;21.63;12.70;;;;;;;;;;4463485;32;20315;-57
2021/12/17 04:36:33;;;;;;;35.70;17.10;;;;;;;;;;4463144;32;20337;-56
2021/12/17 04:39:00;;;;;;;28.00;16.70;;;;;;;;;;4463496;32;20255;-57
2021/12/17 04:44:07;;;;;;;31.07;15.23;;;;;;;;;;4463326;32;20248;-57
2021/12/17 04:57:13;;;;;;;35.50;17.87;;;;;;;;;;4462622;32;20291;-56
2021/12/17 04:57:35;;;;;;;87.10;38.70;;;;;;;;;;4462894;32;20230;-57
2021/12/17 05:00:08;;;;;;;78.43;36.63;;;;;;;;;;4463382;32;20265;-58
2021/12/17 05:02:40;;;;;;;65.67;32.80;;;;;;;;;;4462922;32;20319;-58
2021/12/17 05:05:08;;;;;;;61.30;30.47;;;;;;;;;;4462635;32;20325;-58
2021/12/17 05:07:38;;;;;;;57.13;30.60;;;;;;;;;;4462487;32;20232;-57
2021/12/17 05:10:15;;;;;;;61.47;30.43;;;;;;;;;;4463077;32;20208;-57
2021/12/17 05:18:27;;;;;;;39.90;21.80;;;;;;;;;;4455444;32;20250;-56
2021/12/17 05:20:57;;;;;;;43.70;22.87;;;;;;;;;;4463051;32;20256;-57
2021/12/17 05:23:35;;;;;;;38.40;20.97;;;;;;;;;;4463038;32;20305;-56
2021/12/17 05:26:04;;;;;;;39.13;20.90;;;;;;;;;;4462919;32;20683;-56
2021/12/17 05:28:29;;;;;;;46.50;24.27;;;;;;;;;;4462464;32;20304;-57
2021/12/17 05:30:56;;;;;;;51.73;27.00;;;;;;;;;;4463131;32;20298;-57
2021/12/17 05:33:23;;;;;;;53.87;29.13;;;;;;;;;;4462453;32;20265;-57
2021/12/17 05:35:50;;;;;;;63.80;33.70;;;;;;;;;;4448312;32;20224;-57
2021/12/17 05:38:17;;;;;;;53.93;32.20;;;;;;;;;;4447166;32;20255;-57
2021/12/17 05:40:44;;;;;;;77.27;37.77;;;;;;;;;;4447254;32;20255;-57
2021/12/17 05:43:10;;;;;;;83.80;40.57;;;;;;;;;;4447018;32;20730;-57
2021/12/17 05:45:49;;;;;;;68.50;36.70;;;;;;;;;;4446933;32;20283;-59
2021/12/17 05:48:18;;;;;;;70.13;36.50;;;;;;;;;;4446557;32;20263;-56
2021/12/17 05:50:45;;;;;;;70.60;40.27;;;;;;;;;;4447006;32;20221;-57
2021/12/17 05:53:11;;;;;;;77.40;38.57;;;;;;;;;;4446584;32;20286;-56
2021/12/17 05:55:37;;;;;;;51.03;28.13;;;;;;;;;;4446153;32;20204;-57
2021/12/17 05:58:04;;;;;;;61.57;33.30;;;;;;;;;;4446395;32;20273;-58
2021/12/17 06:00:31;;;;;;;51.37;29.87;;;;;;;;;;4446823;32;20548;-57
2021/12/17 06:02:58;;;;;;;47.97;27.87;;;;;;;;;;4446366;32;20359;-58
2021/12/17 06:05:24;;;;;;;56.87;29.67;;;;;;;;;;4460347;32;20276;-57
2021/12/17 06:07:49;;;;;;;50.83;26.17;;;;;;;;;;4462112;32;20227;-56
2021/12/17 06:10:15;;;;;;;53.07;27.37;;;;;;;;;;4462429;32;20299;-58
2021/12/17 06:12:41;;;;;;;65.00;33.80;;;;;;;;;;4448289;32;20280;-56
2021/12/17 06:15:09;;;;;;;68.07;33.77;;;;;;;;;;4446426;32;20308;-59
2021/12/17 06:17:35;;;;;;;68.63;37.73;;;;;;;;;;4450067;32;20370;-58
2021/12/17 06:20:01;;;;;;;94.93;48.10;;;;;;;;;;4461709;32;20712;-58
2021/12/17 06:22:26;;;;;;;94.53;48.97;;;;;;;;;;4460150;32;20299;-58
2021/12/17 06:24:52;;;;;;;124.07;62.73;;;;;;;;;;4461926;32;20374;-56
2021/12/17 06:27:19;;;;;;;115.90;59.70;;;;;;;;;;4460826;32;20274;-57
2021/12/17 06:29:45;;;;;;;99.07;53.23;;;;;;;;;;4461744;32;20232;-57
2021/12/17 06:32:11;;;;;;;78.33;43.93;;;;;;;;;;4461347;32;20211;-58
2021/12/17 06:34:37;;;;;;;80.33;45.47;;;;;;;;;;4457868;32;20745;-57
2021/12/17 06:37:03;;;;;;;79.53;40.33;;;;;;;;;;4447534;32;20556;-57
2021/12/17 06:39:29;;;;;;;80.57;40.13;;;;;;;;;;4447053;32;20341;-57
2021/12/17 06:41:55;;;;;;;78.73;40.50;;;;;;;;;;4447111;32;20197;-57
2021/12/17 06:44:24;;;;;;;75.57;40.93;;;;;;;;;;4446188;32;20252;-57
2021/12/17 06:46:58;;;;;;;91.13;47.30;;;;;;;;;;4447981;32;20200;-57
2021/12/17 06:54:41;;;;;;;83.90;43.80;;;;;;;;;;4450601;32;20235;-58
2021/12/17 07:10:43;;;;;;;106.07;53.17;;;;;;;;;;4464722;32;20736;-57
2021/12/17 07:39:43;;;;;;;118.60;69.40;;;;;;;;;;4464434;32;20236;-57
2021/12/17 07:42:09;;;;;;;138.97;73.57;;;;;;;;;;4464954;32;20232;-58
2021/12/17 07:44:35;;;;;;;118.47;64.67;;;;;;;;;;4464496;32;20254;-57
2021/12/17 07:47:00;;;;;;;119.57;67.57;;;;;;;;;;4463654;32;20251;-58
2021/12/17 07:49:26;;;;;;;58.00;34.70;;;;;;;;;;4464540;32;20303;-57
2021/12/17 07:51:51;;;;;;;92.97;50.10;;;;;;;;;;4464610;32;20234;-59
2021/12/17 07:54:17;;;;;;;52.67;30.53;;;;;;;;;;4464696;32;20616;-58
2021/12/17 07:56:42;;;;;;;44.73;24.63;;;;;;;;;;4463584;32;20240;-57
2021/12/17 07:59:10;;;;;;;44.97;23.60;;;;;;;;;;4462573;32;20669;-58
2021/12/17 08:01:37;;;;;;;38.37;25.63;;;;;;;;;;4464487;32;20243;-58
2021/12/17 08:04:04;;;;;;;36.80;24.70;;;;;;;;;;4463955;32;20275;-60
2021/12/17 08:06:30;;;;;;;60.43;27.87;;;;;;;;;;4464417;32;20212;-57
2021/12/17 08:08:56;;;;;;;37.93;22.77;;;;;;;;;;4464046;32;20754;-58
2021/12/17 08:11:22;;;;;;;48.33;24.80;;;;;;;;;;4462580;32;20349;-58
2021/12/17 08:13:48;;;;;;;60.20;34.60;;;;;;;;;;4463151;32;20231;-57
2021/12/17 08:23:20;;;;;;;40.97;22.97;;;;;;;;;;4464252;32;20252;-57
2021/12/17 08:32:02;;;;;;;32.53;17.90;;;;;;;;;;4464201;32;20226;-58
2021/12/17 08:34:28;;;;;;;34.57;16.70;;;;;;;;;;4464002;32;20212;-57
2021/12/17 08:36:54;;;;;;;33.23;18.27;;;;;;;;;;4464239;32;20258;-57
2021/12/17 08:39:20;;;;;;;32.13;19.40;;;;;;;;;;4464667;32;20726;-57
2021/12/17 08:41:50;;;;;;;38.30;23.97;;;;;;;;;;4464271;32;20611;-58
2021/12/17 08:44:15;;;;;;;42.07;24.73;;;;;;;;;;4464005;32;20327;-59
2021/12/17 08:46:41;;;;;;;40.27;24.97;;;;;;;;;;4462185;32;20731;-57
2021/12/17 08:49:09;;;;;;;47.27;28.90;;;;;;;;;;4464103;32;20224;-58
2021/12/17 08:51:35;;;;;;;48.33;28.63;;;;;;;;;;4463819;32;20239;-58
2021/12/17 08:54:00;;;;;;;60.30;33.07;;;;;;;;;;4463831;32;20232;-58
2021/12/17 08:56:31;;;;;;;68.90;39.30;;;;;;;;;;4463863;32;20814;-57
2021/12/17 08:58:58;;;;;;;73.47;41.57;;;;;;;;;;4463763;32;20349;-59
2021/12/17 09:01:23;;;;;;;59.13;39.30;;;;;;;;;;4463755;32;20247;-59
2021/12/17 09:03:49;;;;;;;78.87;47.27;;;;;;;;;;4462921;32;20259;-59
2021/12/17 09:06:15;;;;;;;74.90;46.07;;;;;;;;;;4462980;32;20291;-57
2021/12/17 09:08:41;;;;;;;74.83;44.40;;;;;;;;;;4463860;32;20651;-58
2021/12/17 09:11:07;;;;;;;87.90;49.57;;;;;;;;;;4459760;32;20566;-59
2021/12/17 09:13:33;;;;;;;99.87;52.67;;;;;;;;;;4446814;32;20278;-59
2021/12/17 09:16:04;;;;;;;105.07;56.47;;;;;;;;;;4448137;32;20647;-59
2021/12/17 09:18:31;;;;;;;101.80;57.87;;;;;;;;;;4447063;32;20573;-59
2021/12/17 09:20:57;;;;;;;112.43;62.80;;;;;;;;;;4446706;32;20394;-58
2021/12/17 09:23:23;;;;;;;94.00;54.53;;;;;;;;;;4447710;32;20253;-60
2021/12/17 09:25:49;;;;;;;91.23;51.63;;;;;;;;;;4447628;32;20310;-59
2021/12/17 09:28:14;;;;;;;104.33;54.80;;;;;;;;;;4448257;32;20625;-58
2021/12/17 09:30:40;;;;;;;90.50;54.40;;;;;;;;;;4447909;32;20632;-59
2021/12/17 09:33:06;;;;;;;116.67;64.67;;;;;;;;;;4448075;32;20319;-58
2021/12/17 09:35:31;;;;;;;86.73;54.10;;;;;;;;;;4441397;32;20240;-58
2021/12/17 09:37:57;;;;;;;89.50;54.73;;;;;;;;;;4446727;32;20375;-59
2021/12/17 09:40:23;;;;;;;92.23;54.43;;;;;;;;;;4447830;32;20620;-58
2021/12/17 09:42:49;;;;;;;99.57;58.10;;;;;;;;;;4447929;32;20230;-58
2021/12/17 09:45:16;;;;;;;86.23;50.60;;;;;;;;;;4459767;32;20295;-58
2021/12/17 09:47:43;;;;;;;85.70;49.60;;;;;;;;;;4447047;32;20295;-58
2021/12/17 09:50:10;;;;;;;65.07;42.07;;;;;;;;;;4460127;32;20351;-58
2021/12/17 09:52:36;;;;;;;76.00;44.37;;;;;;;;;;4461692;32;20340;-58
2021/12/17 09:55:05;;;;;;;72.20;39.70;;;;;;;;;;4463327;32;20773;-57
2021/12/17 09:57:35;;;;;;;57.93;33.23;;;;;;;;;;4461806;32;20240;-57
2021/12/17 10:00:05;;;;;;;57.30;31.50;;;;;;;;;;4461844;32;20254;-58
2021/12/17 10:02:30;;;;;;;44.47;26.17;;;;;;;;;;4463007;32;20372;-59
2021/12/17 10:04:56;;;;;;;35.30;22.83;;;;;;;;;;4462217;32;20403;-57
2021/12/17 10:07:23;;;;;;;34.57;21.20;;;;;;;;;;4463100;32;20573;-58
2021/12/17 10:09:54;;;;;;;35.13;20.47;;;;;;;;;;4463441;32;20216;-58
2021/12/17 10:12:32;;;;;;;44.13;24.67;;;;;;;;;;4451586;32;20289;-59
2021/12/17 10:15:04;;;;;;;40.43;21.13;;;;;;;;;;4447482;32;20266;-59
2021/12/17 10:17:30;;;;;;;49.70;27.73;;;;;;;;;;4451239;32;20242;-58
2021/12/17 10:19:57;;;;;;;30.60;20.03;;;;;;;;;;4462868;32;20686;-59
2021/12/17 10:22:23;;;;;;;37.07;21.73;;;;;;;;;;4461210;32;20236;-57
2021/12/17 10:25:03;;;;;;;26.57;18.63;;;;;;;;;;4463072;32;20220;-58
2021/12/17 10:27:33;;;;;;;25.13;16.03;;;;;;;;;;4462784;32;20216;-57
2021/12/17 10:30:07;;;;;;;28.23;17.30;;;;;;;;;;4462797;32;20280;-58
2021/12/17 10:32:32;;;;;;;32.33;17.57;;;;;;;;;;4462351;32;20301;-58
2021/12/17 10:35:11;;;;;;;30.23;19.60;;;;;;;;;;4462493;32;20212;-57
2021/12/17 10:37:44;;;;;;;38.57;22.87;;;;;;;;;;4461482;32;20727;-57
2021/12/17 10:40:25;;;;;;;26.53;16.80;;;;;;;;;;4462566;32;20235;-58
2021/12/17 10:43:05;;;;;;;31.03;17.43;;;;;;;;;;4460148;32;20200;-58
2021/12/17 10:45:43;;;;;;;22.63;14.83;;;;;;;;;;4453328;32;20280;-60
2021/12/17 10:48:38;;;;;;;25.57;15.80;;;;;;;;;;4447440;32;20228;-58
2021/12/17 10:51:13;;;;;;;28.83;16.37;;;;;;;;;;4445580;32;20353;-58
2021/12/17 10:53:44;;;;;;;35.90;23.00;;;;;;;;;;4447044;32;20777;-58
2021/12/17 10:56:15;;;;;;;32.13;19.20;;;;;;;;;;4447147;32;20205;-58
2021/12/17 10:59:02;;;;;;;47.80;22.63;;;;;;;;;;4445007;32;20343;-58
2021/12/17 11:01:32;;;;;;;50.47;26.87;;;;;;;;;;4446163;32;20232;-59
2021/12/17 11:04:11;;;;;;;52.77;29.37;;;;;;;;;;4446376;32;20216;-58
2021/12/17 11:06:50;;;;;;;34.53;18.53;;;;;;;;;;4447969;32;20224;-59
2021/12/17 11:09:37;;;;;;;34.07;19.57;;;;;;;;;;4446387;32;20311;-58
2021/12/17 11:12:15;;;;;;;25.17;14.33;;;;;;;;;;4445949;32;20263;-58
2021/12/17 11:14:41;;;;;;;28.53;14.03;;;;;;;;;;4447065;32;20282;-58
2021/12/17 11:17:09;;;;;;;26.13;15.20;;;;;;;;;;4448073;32;20261;-59
2021/12/17 11:19:36;;;;;;;20.93;12.83;;;;;;;;;;4460967;32;20216;-59
2021/12/17 11:22:02;;;;;;;23.10;14.20;;;;;;;;;;4461187;32;20272;-59
2021/12/17 11:24:30;;;;;;;24.00;14.97;;;;;;;;;;4463232;32;20267;-58
2021/12/17 11:26:56;;;;;;;23.53;14.73;;;;;;;;;;4462396;32;20259;-58
2021/12/17 11:29:24;;;;;;;28.80;18.83;;;;;;;;;;4461569;32;20695;-58
2021/12/17 11:31:50;;;;;;;24.70;15.23;;;;;;;;;;4462615;32;20332;-59
2021/12/17 11:34:19;;;;;;;27.00;16.50;;;;;;;;;;4461393;32;20283;-58
2021/12/17 11:36:45;;;;;;;30.63;18.57;;;;;;;;;;4449764;32;20237;-57
2021/12/17 11:39:22;;;;;;;22.77;14.97;;;;;;;;;;4449211;32;20301;-59
2021/12/17 11:42:24;;;;;;;24.50;13.77;;;;;;;;;;4456763;32;20208;-58
2021/12/17 11:45:22;;;;;;;27.80;15.90;;;;;;;;;;4449758;32;20235;-59
2021/12/17 11:47:37;;;;;;;22.23;12.37;;;;;;;;;;4447902;32;20372;-57
2021/12/17 11:50:06;;;;;;;37.90;18.77;;;;;;;;;;4454811;32;20314;-58
2021/12/17 11:52:34;;;;;;;64.83;32.27;;;;;;;;;;4450249;32;20334;-57
2021/12/17 11:55:33;;;;;;;59.67;26.60;;;;;;;;;;4452126;32;20613;-58
2021/12/17 11:58:02;;;;;;;35.07;19.23;;;;;;;;;;4447313;32;20232;-58
2021/12/17 12:00:53;;;;;;;32.17;18.50;;;;;;;;;;4453799;32;20247;-57
2021/12/17 12:03:23;;;;;;;56.17;28.23;;;;;;;;;;4454751;32;20271;-59
2021/12/17 12:05:52;;;;;;;66.20;35.37;;;;;;;;;;4452876;32;20254;-58
2021/12/17 12:08:47;;;;;;;46.50;26.03;;;;;;;;;;4461709;32;20232;-60
2021/12/17 12:11:16;;;;;;;38.03;20.33;;;;;;;;;;4450946;32;20292;-58
2021/12/17 12:13:47;;;;;;;29.30;17.93;;;;;;;;;;4463038;32;20240;-57
2021/12/17 12:16:28;;;;;;;39.00;20.27;;;;;;;;;;4462751;32;20585;-59
2021/12/17 12:18:57;;;;;;;52.27;26.90;;;;;;;;;;4462534;32;20581;-58
2021/12/17 12:21:32;;;;;;;48.23;25.10;;;;;;;;;;4462642;32;20204;-57
2021/12/17 12:24:13;;;;;;;69.53;31.43;;;;;;;;;;4464739;32;20756;-58
2021/12/17 12:26:40;;;;;;;42.07;19.03;;;;;;;;;;4464732;32;20282;-58
2021/12/17 12:29:18;;;;;;;33.57;19.27;;;;;;;;;;4465003;32;20250;-58
2021/12/17 12:31:47;;;;;;;47.40;27.47;;;;;;;;;;4462738;32;20255;-58
2021/12/17 12:34:21;;;;;;;55.27;29.67;;;;;;;;;;4461544;32;20259;-58
2021/12/17 12:36:58;;;;;;;37.27;22.97;;;;;;;;;;4447934;32;20282;-57
2021/12/17 12:39:27;;;;;;;42.93;22.60;;;;;;;;;;4448361;32;20716;-58
2021/12/17 12:41:55;;;;;;;40.30;24.40;;;;;;;;;;4447783;32;20236;-58
2021/12/17 12:44:49;;;;;;;35.57;20.03;;;;;;;;;;4447434;32;20251;-58
2021/12/17 12:47:20;;;;;;;32.10;18.77;;;;;;;;;;4447758;32;20630;-59
2021/12/17 12:49:51;;;;;;;29.17;17.93;;;;;;;;;;4448807;32;20637;-58
2021/12/17 12:52:23;;;;;;;40.43;23.47;;;;;;;;;;4449235;32;20655;-58
2021/12/17 12:54:50;;;;;;;44.50;24.37;;;;;;;;;;4449122;32;20244;-58
2021/12/17 12:57:31;;;;;;;37.10;22.83;;;;;;;;;;4447648;32;20223;-57
2021/12/17 13:00:00;;;;;;;43.00;26.80;;;;;;;;;;4449146;32;20354;-58
2021/12/17 13:02:26;;;;;;;45.23;22.90;;;;;;;;;;4448942;32;20245;-58
2021/12/17 13:04:55;;;;;;;35.77;21.43;;;;;;;;;;4446663;32;20258;-58
2021/12/17 13:07:42;;;;;;;40.47;21.80;;;;;;;;;;4447482;32;20251;-58
2021/12/17 13:10:16;;;;;;;35.97;18.60;;;;;;;;;;4448981;32;20552;-58
2021/12/17 13:12:49;;;;;;;48.93;26.30;;;;;;;;;;4448171;32;20267;-58
2021/12/17 13:15:20;;;;;;;80.73;36.73;;;;;;;;;;4448586;32;20192;-57
2021/12/17 13:21:16;;;;;;;48.77;26.00;;;;;;;;;;4463921;32;20625;-57
2021/12/17 13:23:48;;;;;;;31.33;18.03;;;;;;;;;;4461494;32;20311;-57
2021/12/17 13:26:14;;;;;;;17.07;10.67;;;;;;;;;;4464334;32;20235;-57
2021/12/17 13:29:06;;;;;;;9.80;5.70;;;;;;;;;;4464307;32;20270;-57
2021/12/17 13:31:51;;;;;;;4.80;3.30;;;;;;;;;;4463939;32;20216;-57
2021/12/17 13:34:25;;;;;;;8.90;4.90;;;;;;;;;;4463894;32;20707;-58
2021/12/17 13:37:02;;;;;;;8.30;3.63;;;;;;;;;;4464384;32;20260;-58
2021/12/17 13:39:31;;;;;;;9.30;6.17;;;;;;;;;;4464591;32;20548;-58
2021/12/17 13:41:58;;;;;;;14.27;4.40;;;;;;;;;;4464430;32;20403;-56
2021/12/17 13:44:49;;;;;;;10.90;5.53;;;;;;;;;;4463692;32;20228;-58
2021/12/17 13:47:30;;;;;;;5.43;4.00;;;;;;;;;;4432867;32;20684;-57
2021/12/17 13:49:59;;;;;;;6.90;4.77;;;;;;;;;;4464214;32;20328;-57
2021/12/17 13:52:26;;;;;;;10.93;6.57;;;;;;;;;;4464095;32;20272;-57
2021/12/17 13:54:53;;;;;;;12.90;7.90;;;;;;;;;;4464544;32;20630;-58
2021/12/17 13:57:22;;;;;;;14.43;6.50;;;;;;;;;;4463718;32;20235;-58
2021/12/17 13:59:48;;;;;;;5.57;3.83;;;;;;;;;;4464069;32;20224;-58
2021/12/17 14:02:18;;;;;;;7.30;4.57;;;;;;;;;;4463911;32;20640;-58
2021/12/17 14:05:02;;;;;;;8.33;5.83;;;;;;;;;;4462926;32;20653;-57
2021/12/17 14:07:32;;;;;;;4.63;3.87;;;;;;;;;;4463811;32;20291;-57
2021/12/17 14:10:11;;;;;;;7.50;5.57;;;;;;;;;;4464157;32;20371;-58
2021/12/17 14:12:40;;;;;;;8.07;5.00;;;;;;;;;;4450555;32;20216;-57
2021/12/17 14:15:12;;;;;;;6.83;4.93;;;;;;;;;;4447115;32;20308;-57
2021/12/17 14:17:44;;;;;;;13.17;7.27;;;;;;;;;;4451526;32;20307;-57
2021/12/17 14:20:14;;;;;;;6.97;5.60;;;;;;;;;;4463835;32;20242;-58
2021/12/17 14:22:43;;;;;;;12.60;7.03;;;;;;;;;;4463637;32;20234;-57
2021/12/17 14:25:28;;;;;;;7.43;4.80;;;;;;;;;;4462643;32;20254;-58
2021/12/17 14:28:01;;;;;;;4.60;3.03;;;;;;;;;;4463724;32;20755;-58
2021/12/17 14:30:33;;;;;;;6.10;3.13;;;;;;;;;;4463428;32;20370;-58
2021/12/17 14:33:07;;;;;;;4.97;3.40;;;;;;;;;;4463870;32;20232;-57
2021/12/17 14:35:55;;;;;;;6.10;4.17;;;;;;;;;;4463455;32;20204;-56
2021/12/17 14:38:32;;;;;;;6.37;4.57;;;;;;;;;;4463716;32;20649;-57
2021/12/17 14:41:00;;;;;;;21.67;5.47;;;;;;;;;;4463546;32;20239;-56
2021/12/17 14:43:45;;;;;;;6.13;4.20;;;;;;;;;;4463347;32;20216;-58
2021/12/17 14:46:18;;;;;;;18.47;8.67;;;;;;;;;;4463474;32;20307;-57
2021/12/17 14:49:08;;;;;;;3.93;3.03;;;;;;;;;;4462511;32;20263;-57
2021/12/17 14:57:22;;;;;;;8.13;4.00;;;;;;;;;;4463450;32;20254;-57
2021/12/17 15:04:43;;;;;;;9.23;5.20;;;;;;;;;;4462194;32;20263;-57
2021/12/17 15:07:09;;;;;;;7.97;5.10;;;;;;;;;;4462198;32;20292;-57
2021/12/17 15:09:38;;;;;;;13.50;7.27;;;;;;;;;;4465586;32;20631;-58
2021/12/17 15:12:13;;;;;;;9.93;5.20;;;;;;;;;;4455811;32;20208;-56
2021/12/17 15:14:39;;;;;;;9.97;5.27;;;;;;;;;;4450646;32;20232;-57
2021/12/17 15:17:04;;;;;;;10.73;6.37;;;;;;;;;;4452029;32;20547;-57
2021/12/17 15:19:30;;;;;;;8.53;4.90;;;;;;;;;;4466063;32;20308;-58
2021/12/17 15:21:56;;;;;;;5.97;3.67;;;;;;;;;;4466175;32;20314;-57
2021/12/17 15:24:21;;;;;;;7.10;4.60;;;;;;;;;;4466322;32;20685;-57
2021/12/17 15:26:47;;;;;;;6.50;3.30;;;;;;;;;;4465776;32;20244;-57
2021/12/17 15:29:12;;;;;;;3.30;2.97;;;;;;;;;;4465908;32;20224;-58
2021/12/17 15:31:38;;;;;;;5.23;3.47;;;;;;;;;;4466288;32;20268;-57
2021/12/17 15:34:03;;;;;;;11.17;4.73;;;;;;;;;;4464780;32;20304;-56
2021/12/17 15:36:29;;;;;;;4.33;3.30;;;;;;;;;;4465840;32;20667;-57
2021/12/17 15:38:54;;;;;;;9.40;6.13;;;;;;;;;;4466180;32;20296;-57
2021/12/17 15:41:19;;;;;;;6.47;3.90;;;;;;;;;;4466195;32;20355;-57
2021/12/17 15:43:45;;;;;;;6.50;3.67;;;;;;;;;;4460156;32;20221;-56
2021/12/17 15:46:10;;;;;;;10.93;6.00;;;;;;;;;;4456538;32;20208;-57
2021/12/17 15:48:36;;;;;;;16.60;9.53;;;;;;;;;;4461904;32;20374;-57
2021/12/17 15:51:03;;;;;;;19.10;8.40;;;;;;;;;;4450485;32;20675;-57
2021/12/17 15:53:30;;;;;;;13.37;6.97;;;;;;;;;;4461824;32;20296;-57
2021/12/17 15:55:56;;;;;;;6.20;4.43;;;;;;;;;;4449966;32;20288;-58
2021/12/17 15:58:21;;;;;;;11.80;4.83;;;;;;;;;;4449787;32;20225;-58
2021/12/17 16:00:48;;;;;;;7.60;3.93;;;;;;;;;;4450053;32;20271;-57
2021/12/17 16:03:15;;;;;;;8.17;5.10;;;;;;;;;;4450034;32;20255;-58
2021/12/17 16:05:40;;;;;;;6.77;4.17;;;;;;;;;;4449030;32;20263;-57
2021/12/17 16:08:06;;;;;;;4.80;3.23;;;;;;;;;;4461614;32;20722;-57
2021/12/17 16:21:14;;;;;;;33.67;12.17;;;;;;;;;;4464738;32;20232;-56
2021/12/17 16:23:46;;;;;;;31.07;14.20;;;;;;;;;;4457731;32;20254;-57
2021/12/17 16:26:14;;;;;;;38.73;15.77;;;;;;;;;;4449549;32;20272;-58
2021/12/17 16:28:45;;;;;;;17.90;10.93;;;;;;;;;;4452599;32;20294;-58
2021/12/17 16:31:22;;;;;;;29.57;15.47;;;;;;;;;;4455006;32;20212;-58
2021/12/17 16:33:51;;;;;;;28.57;11.83;;;;;;;;;;4451996;32;20235;-57
2021/12/17 16:36:16;;;;;;;42.17;16.37;;;;;;;;;;4449390;32;20313;-56
2021/12/17 16:38:42;;;;;;;49.57;16.77;;;;;;;;;;4449107;32;20252;-57
2021/12/17 16:41:09;;;;;;;20.70;11.40;;;;;;;;;;4448677;32;20460;-57
2021/12/17 16:43:36;;;;;;;8.63;5.47;;;;;;;;;;4449240;32;20259;-60
2021/12/17 16:48:34;;;;;;;23.57;11.57;;;;;;;;;;4450197;32;20255;-56
2021/12/17 16:51:00;;;;;;;20.27;8.80;;;;;;;;;;4449251;32;20226;-57
2021/12/17 16:53:25;;;;;;;16.30;8.97;;;;;;;;;;4448430;32;20485;-58
2021/12/17 16:55:51;;;;;;;9.83;6.40;;;;;;;;;;4447867;32;20692;-57
2021/12/17 16:58:16;;;;;;;8.60;5.77;;;;;;;;;;4448676;32;20681;-56
2021/12/17 17:00:42;;;;;;;8.63;4.37;;;;;;;;;;4455918;32;20703;-57
2021/12/17 17:03:07;;;;;;;11.30;6.30;;;;;;;;;;4464211;32;20248;-58
2021/12/17 17:05:33;;;;;;;6.97;4.50;;;;;;;;;;4464746;32;20383;-58
2021/12/17 17:07:58;;;;;;;9.07;5.70;;;;;;;;;;4461219;32;20278;-58
2021/12/17 17:10:29;;;;;;;19.87;7.20;;;;;;;;;;4460468;32;20267;-57
2021/12/17 17:12:59;;;;;;;13.73;6.77;;;;;;;;;;4449029;32;20254;-57
2021/12/17 17:15:25;;;;;;;10.90;7.80;;;;;;;;;;4448617;32;20228;-57
2021/12/17 17:17:52;;;;;;;12.37;8.47;;;;;;;;;;4453672;32;20255;-57
2021/12/17 17:20:18;;;;;;;10.83;5.27;;;;;;;;;;4462809;32;20220;-57
2021/12/17 17:22:43;;;;;;;12.30;5.87;;;;;;;;;;4464253;32;20331;-58
2021/12/17 17:25:09;;;;;;;10.47;4.63;;;;;;;;;;4464610;32;20339;-57
2021/12/17 17:27:34;;;;;;;10.50;4.63;;;;;;;;;;4459194;32;20653;-57
2021/12/17 17:29:59;;;;;;;63.30;27.43;;;;;;;;;;4450842;32;20275;-57
2021/12/17 17:32:26;;;;;;;9.97;5.33;;;;;;;;;;4462014;32;20255;-57
2021/12/17 17:34:51;;;;;;;16.50;8.37;;;;;;;;;;4457463;32;20220;-57
2021/12/17 17:37:17;;;;;;;15.03;7.53;;;;;;;;;;4448296;32;20200;-58
2021/12/17 17:39:42;;;;;;;10.03;6.60;;;;;;;;;;4448696;32;20248;-57
2021/12/17 17:42:08;;;;;;;6.73;4.60;;;;;;;;;;4448671;32;20322;-57
2021/12/17 17:44:34;;;;;;;7.90;4.57;;;;;;;;;;4447197;32;20575;-57
2021/12/17 17:46:59;;;;;;;9.67;5.93;;;;;;;;;;4448545;32;20757;-57
2021/12/17 17:49:25;;;;;;;9.57;5.93;;;;;;;;;;4448668;32;20335;-59
2021/12/17 17:51:51;;;;;;;69.43;31.30;;;;;;;;;;4448413;32;20272;-56
2021/12/17 17:54:16;;;;;;;19.40;10.47;;;;;;;;;;4447467;32;20323;-57